createdAt,value
2018-11-27T00:00:20.369Z,45.70
2018-11-27T00:01:20.343Z,48.60
2018-11-27T00:02:20.304Z,48.80
2018-11-27T00:03:20.321Z,46.50
2018-11-27T00:04:20.280Z,47.70
2018-11-27T00:05:20.270Z,42.60
2018-11-27T00:06:20.284Z,49.40
2018-11-27T00:07:20.248Z,43.50
2018-11-27T00:08:20.239Z,43.50
2018-11-27T00:09:20.251Z,46.20
2018-11-27T00:10:20.217Z,46.40
2018-11-27T00:11:20.229Z,41.20
2018-11-27T00:12:20.192Z,43.80
2018-11-27T00:13:20.181Z,41.70
2018-11-27T00:14:20.170Z,39.10
2018-11-27T00:15:20.191Z,39.50
2018-11-27T00:16:20.177Z,40.10
2018-11-27T00:17:20.150Z,39.80
2018-11-27T00:18:20.135Z,38.70
2018-11-27T00:19:20.154Z,40.40
2018-11-27T00:20:20.110Z,40.80
2018-11-27T00:21:20.179Z,40.20
2018-11-27T00:22:20.084Z,36.20
2018-11-27T00:23:20.075Z,40.80
2018-11-27T00:24:20.067Z,38.10
2018-11-27T00:25:20.050Z,36.60
2018-11-27T00:26:20.044Z,33.60
2018-11-27T00:27:20.083Z,35.50
2018-11-27T00:28:20.016Z,34.80
2018-11-27T00:29:20.008Z,27.00
2018-11-27T00:30:20.004Z,28.30
2018-11-27T00:31:19.983Z,27.00
2018-11-27T00:32:19.996Z,24.20
2018-11-27T00:33:19.994Z,26.40
2018-11-27T00:34:19.958Z,28.20
2018-11-27T00:35:19.939Z,22.00
2018-11-27T00:36:19.934Z,27.10
2018-11-27T00:37:19.958Z,28.50
2018-11-27T00:38:19.913Z,26.30
2018-11-27T00:39:19.911Z,24.30
2018-11-27T00:40:19.886Z,22.10
2018-11-27T00:41:19.874Z,21.80
2018-11-27T00:42:19.863Z,26.10
2018-11-27T00:43:19.881Z,25.60
2018-11-27T00:44:19.845Z,22.70
2018-11-27T00:45:19.857Z,25.40
2018-11-27T00:46:19.821Z,24.00
2018-11-27T00:47:19.814Z,24.70
2018-11-27T00:48:19.823Z,25.80
2018-11-27T00:49:19.784Z,25.50
2018-11-27T00:50:19.775Z,26.80
2018-11-27T00:51:19.791Z,25.40
2018-11-27T00:52:19.754Z,21.70
2018-11-27T00:53:19.770Z,27.70
2018-11-27T00:54:20.077Z,23.60
2018-11-27T00:55:19.727Z,24.70
2018-11-27T00:56:19.711Z,23.40
2018-11-27T00:57:19.741Z,24.10
2018-11-27T00:58:19.715Z,25.40
2018-11-27T00:59:19.683Z,25.00
2018-11-27T01:00:19.672Z,22.60
2018-11-27T01:01:19.655Z,24.20
2018-11-27T01:02:19.648Z,21.90
2018-11-27T01:03:19.689Z,28.30
2018-11-27T01:04:19.628Z,24.30
2018-11-27T01:05:19.640Z,24.70
2018-11-27T01:06:19.611Z,24.60
2018-11-27T01:07:19.601Z,26.00
2018-11-27T01:08:19.603Z,23.90
2018-11-27T01:09:19.569Z,24.40
2018-11-27T01:10:19.584Z,25.30
2018-11-27T01:11:19.546Z,22.40
2018-11-27T01:12:19.540Z,24.90
2018-11-27T01:13:19.553Z,25.00
2018-11-27T01:14:19.521Z,26.00
2018-11-27T01:15:19.503Z,25.50
2018-11-27T01:16:19.551Z,24.10
2018-11-27T01:17:19.492Z,22.60
2018-11-27T01:18:19.484Z,26.00
2018-11-27T01:19:19.488Z,26.60
2018-11-27T01:20:19.452Z,24.70
2018-11-27T01:21:19.445Z,24.40
2018-11-27T01:22:19.458Z,25.70
2018-11-27T01:23:19.425Z,25.00
2018-11-27T01:24:19.404Z,25.50
2018-11-27T01:25:19.419Z,23.80
2018-11-27T01:26:19.386Z,24.80
2018-11-27T01:27:19.375Z,25.70
2018-11-27T01:28:19.433Z,24.60
2018-11-27T01:29:19.354Z,24.10
2018-11-27T01:30:19.374Z,26.60
2018-11-27T01:31:19.341Z,25.60
2018-11-27T01:32:19.323Z,24.10
2018-11-27T01:33:19.312Z,25.40
2018-11-27T01:34:19.332Z,27.90
2018-11-27T01:35:19.312Z,27.60
2018-11-27T01:36:19.281Z,25.30
2018-11-27T01:37:19.265Z,26.90
2018-11-27T01:38:19.255Z,26.30
2018-11-27T01:39:19.255Z,27.00
2018-11-27T01:40:19.261Z,24.80
2018-11-27T01:41:19.313Z,26.40
2018-11-27T01:42:19.211Z,26.90
2018-11-27T01:43:19.201Z,25.30
2018-11-27T01:44:19.190Z,27.30
2018-11-27T01:45:19.214Z,24.20
2018-11-27T01:46:19.169Z,24.80
2018-11-27T01:47:19.182Z,27.20
2018-11-27T01:48:19.144Z,24.60
2018-11-27T01:49:19.136Z,25.40
2018-11-27T01:50:19.151Z,24.80
2018-11-27T01:51:19.112Z,27.50
2018-11-27T01:52:19.108Z,25.50
2018-11-27T01:53:19.125Z,27.90
2018-11-27T01:54:19.086Z,22.80
2018-11-27T01:55:19.071Z,25.10
2018-11-27T01:56:19.089Z,24.60
2018-11-27T01:57:19.076Z,27.40
2018-11-27T01:58:19.075Z,28.40
2018-11-27T01:59:19.064Z,26.40
2018-11-27T02:00:19.027Z,29.70
2018-11-27T02:01:19.035Z,25.50
2018-11-27T02:02:18.990Z,28.00
2018-11-27T02:03:18.986Z,26.30
2018-11-27T02:04:19.015Z,25.80
2018-11-27T02:05:18.991Z,26.00
2018-11-27T02:06:18.951Z,28.40
2018-11-27T02:07:18.968Z,25.60
2018-11-27T02:08:18.932Z,27.70
2018-11-27T02:09:18.921Z,25.80
2018-11-27T02:10:18.915Z,25.60
2018-11-27T02:11:18.932Z,28.00
2018-11-27T02:12:18.882Z,26.30
2018-11-27T02:13:18.904Z,27.30
2018-11-27T02:14:18.906Z,27.30
2018-11-27T02:15:18.871Z,25.80
2018-11-27T02:16:18.849Z,27.50
2018-11-27T02:17:18.857Z,26.50
2018-11-27T02:18:18.847Z,27.10
2018-11-27T02:19:18.811Z,24.80
2018-11-27T02:20:18.803Z,23.90
2018-11-27T02:21:18.791Z,25.00
2018-11-27T02:22:18.779Z,22.90
2018-11-27T02:23:18.859Z,24.10
2018-11-27T02:24:18.755Z,24.40
2018-11-27T02:25:18.743Z,24.80
2018-11-27T02:26:18.735Z,25.30
2018-11-27T02:27:18.731Z,24.20
2018-11-27T02:28:18.736Z,25.40
2018-11-27T02:29:18.743Z,24.70
2018-11-27T02:30:18.695Z,24.50
2018-11-27T02:31:18.683Z,21.60
2018-11-27T02:32:18.675Z,26.00
2018-11-27T02:33:18.692Z,26.30
2018-11-27T02:34:18.649Z,21.00
2018-11-27T02:35:18.693Z,24.10
2018-11-27T02:36:18.625Z,21.20
2018-11-27T02:37:18.617Z,24.70
2018-11-27T02:38:18.611Z,24.10
2018-11-27T02:39:18.659Z,23.00
2018-11-27T02:40:18.584Z,21.80
2018-11-27T02:41:18.583Z,22.40
2018-11-27T02:42:18.564Z,21.80
2018-11-27T02:43:18.552Z,21.40
2018-11-27T02:44:18.554Z,20.00
2018-11-27T02:45:18.564Z,22.80
2018-11-27T02:46:18.521Z,19.00
2018-11-27T02:47:18.504Z,24.40
2018-11-27T02:48:18.516Z,20.50
2018-11-27T02:49:18.484Z,21.30
2018-11-27T02:50:18.506Z,22.10
2018-11-27T02:51:18.465Z,24.20
2018-11-27T02:52:18.461Z,22.90
2018-11-27T02:53:18.439Z,20.20
2018-11-27T02:54:18.427Z,21.00
2018-11-27T02:55:18.467Z,21.40
2018-11-27T02:56:18.444Z,21.10
2018-11-27T02:57:18.396Z,20.80
2018-11-27T02:58:18.389Z,23.20
2018-11-27T02:59:18.378Z,21.20
2018-11-27T03:00:18.365Z,24.00
2018-11-27T03:01:18.391Z,23.70
2018-11-27T03:02:18.359Z,23.40
2018-11-27T03:03:18.365Z,22.10
2018-11-27T03:04:18.322Z,21.40
2018-11-27T03:05:18.313Z,21.80
2018-11-27T03:06:18.333Z,21.30
2018-11-27T03:07:18.289Z,23.60
2018-11-27T03:08:18.308Z,22.40
2018-11-27T03:09:18.267Z,22.50
2018-11-27T03:10:18.259Z,24.70
2018-11-27T03:11:18.269Z,24.20
2018-11-27T03:12:18.235Z,23.20
2018-11-27T03:13:18.241Z,24.30
2018-11-27T03:14:18.305Z,22.50
2018-11-27T03:15:18.199Z,24.20
2018-11-27T03:16:18.213Z,24.00
2018-11-27T03:17:18.225Z,21.80
2018-11-27T03:18:18.174Z,22.00
2018-11-27T03:19:18.162Z,24.40
2018-11-27T03:20:18.191Z,21.90
2018-11-27T03:21:18.173Z,22.10
2018-11-27T03:22:18.136Z,22.30
2018-11-27T03:23:18.119Z,22.90
2018-11-27T03:24:18.105Z,20.00
2018-11-27T03:25:18.131Z,24.80
2018-11-27T03:26:18.085Z,22.30
2018-11-27T03:27:18.113Z,21.80
2018-11-27T03:28:18.062Z,20.70
2018-11-27T03:29:18.056Z,22.40
2018-11-27T03:30:18.046Z,21.90
2018-11-27T03:31:18.059Z,20.30
2018-11-27T03:32:18.031Z,18.90
2018-11-27T03:33:18.042Z,22.50
2018-11-27T03:34:18.006Z,20.60
2018-11-27T03:35:17.995Z,21.80
2018-11-27T03:36:17.983Z,20.50
2018-11-27T03:37:17.974Z,20.40
2018-11-27T03:38:18.010Z,21.40
2018-11-27T03:39:17.952Z,21.80
2018-11-27T03:40:17.951Z,20.30
2018-11-27T03:41:17.928Z,19.50
2018-11-27T03:42:17.919Z,21.00
2018-11-27T03:43:17.927Z,19.00
2018-11-27T03:44:17.902Z,17.60
2018-11-27T03:45:17.921Z,19.10
2018-11-27T03:46:17.876Z,23.70
2018-11-27T03:47:17.861Z,20.10
2018-11-27T03:48:18.342Z,19.20
2018-11-27T03:49:17.849Z,20.50
2018-11-27T03:50:17.833Z,20.60
2018-11-27T03:51:17.869Z,18.80
2018-11-27T03:52:17.813Z,19.50
2018-11-27T03:53:17.829Z,19.30
2018-11-27T03:54:17.793Z,21.10
2018-11-27T03:55:17.780Z,18.60
2018-11-27T03:56:17.773Z,21.20
2018-11-27T03:57:17.788Z,17.60
2018-11-27T03:58:17.778Z,20.70
2018-11-27T03:59:17.738Z,19.60
2018-11-27T04:00:17.731Z,20.60
2018-11-27T04:01:17.722Z,17.10
2018-11-27T04:02:17.714Z,16.80
2018-11-27T04:03:17.742Z,18.50
2018-11-27T04:04:17.708Z,20.30
2018-11-27T04:05:17.674Z,17.20
2018-11-27T04:06:17.687Z,19.10
2018-11-27T04:07:17.650Z,19.20
2018-11-27T04:08:17.648Z,18.40
2018-11-27T04:09:17.674Z,20.20
2018-11-27T04:10:17.635Z,18.80
2018-11-27T04:11:17.610Z,18.50
2018-11-27T04:12:17.601Z,18.90
2018-11-27T04:13:17.591Z,16.00
2018-11-27T04:14:17.588Z,19.50
2018-11-27T04:15:17.619Z,19.30
2018-11-27T04:16:17.562Z,21.10
2018-11-27T04:17:17.551Z,18.70
2018-11-27T04:18:17.537Z,20.40
2018-11-27T04:19:17.528Z,18.30
2018-11-27T04:20:17.574Z,17.50
2018-11-27T04:21:17.549Z,20.00
2018-11-27T04:22:17.497Z,19.50
2018-11-27T04:23:17.480Z,18.20
2018-11-27T04:24:17.476Z,22.30
2018-11-27T04:25:17.470Z,20.50
2018-11-27T04:26:17.509Z,18.40
2018-11-27T04:27:17.448Z,20.20
2018-11-27T04:28:17.455Z,19.40
2018-11-27T04:29:17.418Z,20.20
2018-11-27T04:30:17.407Z,20.00
2018-11-27T04:31:17.423Z,21.70
2018-11-27T04:32:17.396Z,21.20
2018-11-27T04:33:17.380Z,20.50
2018-11-27T04:34:17.390Z,22.00
2018-11-27T04:35:17.364Z,20.80
2018-11-27T04:36:17.382Z,21.80
2018-11-27T04:37:17.337Z,23.60
2018-11-27T04:38:17.324Z,22.90
2018-11-27T04:39:17.314Z,21.10
2018-11-27T04:40:17.350Z,22.10
2018-11-27T04:41:17.295Z,24.40
2018-11-27T04:42:17.313Z,22.10
2018-11-27T04:43:17.271Z,21.60
2018-11-27T04:44:17.262Z,23.20
2018-11-27T04:45:17.247Z,20.90
2018-11-27T04:46:17.251Z,23.40
2018-11-27T04:47:17.237Z,21.60
2018-11-27T04:48:17.244Z,18.60
2018-11-27T04:49:17.205Z,23.30
2018-11-27T04:50:17.209Z,21.30
2018-11-27T04:51:17.189Z,21.80
2018-11-27T04:52:17.239Z,23.40
2018-11-27T04:53:17.196Z,22.50
2018-11-27T04:54:17.155Z,21.50
2018-11-27T04:55:17.145Z,20.40
2018-11-27T04:56:17.134Z,22.50
2018-11-27T04:57:17.119Z,19.50
2018-11-27T04:58:17.125Z,23.20
2018-11-27T04:59:17.166Z,23.80
2018-11-27T05:00:17.110Z,20.60
2018-11-27T05:01:17.078Z,19.90
2018-11-27T05:02:17.068Z,22.30
2018-11-27T05:03:17.052Z,24.50
2018-11-27T05:04:17.049Z,23.40
2018-11-27T05:05:17.071Z,21.70
2018-11-27T05:06:17.060Z,21.00
2018-11-27T05:07:17.016Z,20.50
2018-11-27T05:08:16.999Z,23.00
2018-11-27T05:09:16.991Z,23.50
2018-11-27T05:10:17.006Z,21.90
2018-11-27T05:11:16.970Z,24.80
2018-11-27T05:12:16.988Z,23.50
2018-11-27T05:13:16.950Z,22.90
2018-11-27T05:14:16.939Z,20.60
2018-11-27T05:15:16.969Z,21.80
2018-11-27T05:16:16.913Z,22.40
2018-11-27T05:17:16.907Z,21.60
2018-11-27T05:18:16.943Z,22.80
2018-11-27T05:19:16.900Z,21.20
2018-11-27T05:20:16.881Z,24.50
2018-11-27T05:21:16.901Z,25.00
2018-11-27T05:22:16.854Z,24.00
2018-11-27T05:23:16.845Z,22.40
2018-11-27T05:24:16.920Z,26.70
2018-11-27T05:25:16.826Z,28.10
2018-11-27T05:26:16.806Z,24.80
2018-11-27T05:27:16.850Z,24.70
2018-11-27T05:28:16.793Z,25.60
2018-11-27T05:29:16.775Z,22.80
2018-11-27T05:30:16.818Z,26.30
2018-11-27T05:31:16.770Z,20.50
2018-11-27T05:32:16.789Z,24.30
2018-11-27T05:33:16.748Z,25.00
2018-11-27T05:34:16.723Z,20.30
2018-11-27T05:35:16.750Z,28.10
2018-11-27T05:36:16.705Z,23.70
2018-11-27T05:37:16.711Z,24.30
2018-11-27T05:38:16.740Z,22.80
2018-11-27T05:39:16.685Z,24.10
2018-11-27T05:40:16.682Z,25.60
2018-11-27T05:41:16.657Z,24.10
2018-11-27T05:42:16.632Z,27.80
2018-11-27T05:43:16.661Z,23.30
2018-11-27T05:44:16.656Z,24.30
2018-11-27T05:45:16.624Z,24.60
2018-11-27T05:46:16.595Z,23.60
2018-11-27T05:47:16.589Z,25.40
2018-11-27T05:48:16.597Z,25.60
2018-11-27T05:49:16.562Z,26.00
2018-11-27T05:50:16.554Z,24.90
2018-11-27T05:51:16.563Z,24.90
2018-11-27T05:52:16.535Z,28.10
2018-11-27T05:53:16.562Z,24.30
2018-11-27T05:54:16.507Z,28.70
2018-11-27T05:55:16.500Z,30.90
2018-11-27T05:56:16.490Z,26.70
2018-11-27T05:57:16.491Z,24.70
2018-11-27T05:58:16.501Z,24.80
2018-11-27T05:59:16.459Z,32.50
2018-11-27T06:00:16.443Z,31.60
2018-11-27T06:01:16.431Z,30.70
2018-11-27T06:02:16.444Z,32.10
2018-11-27T06:03:16.443Z,31.40
2018-11-27T06:04:16.422Z,34.60
2018-11-27T06:05:16.392Z,31.00
2018-11-27T06:06:16.398Z,30.40
2018-11-27T06:07:16.368Z,30.10
2018-11-27T06:08:16.355Z,30.30
2018-11-27T06:09:16.560Z,29.70
2018-11-27T06:10:16.366Z,30.40
2018-11-27T06:11:16.334Z,32.00
2018-11-27T06:12:16.314Z,35.80
2018-11-27T06:13:16.305Z,35.20
2018-11-27T06:14:16.301Z,29.30
2018-11-27T06:15:16.308Z,30.90
2018-11-27T06:16:16.303Z,31.80
2018-11-27T06:17:16.272Z,33.80
2018-11-27T06:18:16.250Z,32.60
2018-11-27T06:19:16.240Z,32.90
2018-11-27T06:20:16.254Z,33.60
2018-11-27T06:21:16.221Z,33.90
2018-11-27T06:22:16.242Z,33.20
2018-11-27T06:23:16.201Z,35.70
2018-11-27T06:24:16.186Z,33.30
2018-11-27T06:25:16.204Z,36.40
2018-11-27T06:26:16.170Z,36.50
2018-11-27T06:27:16.156Z,34.50
2018-11-27T06:28:16.147Z,32.50
2018-11-27T06:29:16.424Z,33.30
2018-11-27T06:30:16.156Z,32.50
2018-11-27T06:31:16.120Z,37.90
2018-11-27T06:32:21.289Z,34.20
2018-11-27T06:33:17.108Z,32.80
2018-11-27T06:34:16.082Z,29.80
2018-11-27T06:35:16.197Z,32.10
2018-11-27T06:36:16.101Z,31.70
2018-11-27T06:37:16.054Z,30.50
2018-11-27T06:38:16.037Z,31.90
2018-11-27T06:39:16.026Z,32.90
2018-11-27T06:40:16.027Z,29.70
2018-11-27T06:41:16.049Z,29.60
2018-11-27T06:42:16.047Z,32.00
2018-11-27T06:43:15.985Z,29.30
2018-11-27T06:44:15.979Z,31.80
2018-11-27T06:45:15.965Z,30.20
2018-11-27T06:46:15.992Z,31.70
2018-11-27T06:47:15.942Z,33.50
2018-11-27T06:48:15.949Z,31.60
2018-11-27T06:49:15.927Z,31.10
2018-11-27T06:50:15.920Z,34.60
2018-11-27T06:51:15.937Z,30.00
2018-11-27T06:52:15.902Z,27.50
2018-11-27T06:53:15.879Z,31.10
2018-11-27T06:54:15.871Z,29.60
2018-11-27T06:55:15.869Z,27.60
2018-11-27T06:56:15.844Z,33.20
2018-11-27T06:57:15.877Z,31.30
2018-11-27T06:58:15.830Z,28.00
2018-11-27T06:59:15.813Z,30.60
2018-11-27T07:00:15.804Z,29.90
2018-11-27T07:01:15.840Z,28.40
2018-11-27T07:02:15.789Z,29.40
2018-11-27T07:03:15.794Z,30.00
2018-11-27T07:04:15.759Z,29.10
2018-11-27T07:05:15.750Z,29.50
2018-11-27T07:06:15.743Z,31.60
2018-11-27T07:07:15.756Z,30.60
2018-11-27T07:08:15.747Z,27.80
2018-11-27T07:09:15.710Z,30.90
2018-11-27T07:10:15.702Z,27.90
2018-11-27T07:11:15.683Z,28.30
2018-11-27T07:12:15.674Z,31.50
2018-11-27T07:13:15.691Z,29.20
2018-11-27T07:14:15.701Z,30.70
2018-11-27T07:15:15.671Z,35.40
2018-11-27T07:16:15.634Z,33.40
2018-11-27T07:17:15.620Z,31.70
2018-11-27T07:18:15.609Z,29.80
2018-11-27T07:19:15.644Z,31.50
2018-11-27T07:20:15.588Z,32.90
2018-11-27T07:21:15.585Z,33.40
2018-11-27T07:22:15.581Z,32.70
2018-11-27T07:23:15.565Z,31.90
2018-11-27T07:24:15.569Z,35.40
2018-11-27T07:25:15.563Z,29.70
2018-11-27T07:26:15.529Z,29.10
2018-11-27T07:27:15.512Z,31.30
2018-11-27T07:28:15.506Z,28.10
2018-11-27T07:29:15.495Z,28.60
2018-11-27T07:30:15.514Z,32.30
2018-11-27T07:31:15.470Z,30.80
2018-11-27T07:32:15.470Z,33.80
2018-11-27T07:33:15.484Z,30.60
2018-11-27T07:34:15.440Z,29.50
2018-11-27T07:35:15.476Z,33.00
2018-11-27T07:36:15.417Z,33.30
2018-11-27T07:37:15.423Z,35.90
2018-11-27T07:38:15.411Z,35.00
2018-11-27T07:39:15.415Z,32.50
2018-11-27T07:40:15.377Z,34.00
2018-11-27T07:41:15.405Z,35.30
2018-11-27T07:42:15.363Z,31.30
2018-11-27T07:43:15.400Z,29.70
2018-11-27T07:44:15.331Z,32.60
2018-11-27T07:45:15.319Z,30.40
2018-11-27T07:46:15.342Z,29.40
2018-11-27T07:47:15.305Z,27.80
2018-11-27T07:48:15.295Z,32.00
2018-11-27T07:49:15.317Z,31.70
2018-11-27T07:50:15.314Z,28.50
2018-11-27T07:51:15.294Z,28.90
2018-11-27T07:52:15.245Z,31.60
2018-11-27T07:53:15.233Z,27.80
2018-11-27T07:54:15.245Z,34.20
2018-11-27T07:55:15.233Z,25.60
2018-11-27T07:56:15.244Z,28.50
2018-11-27T07:57:15.208Z,27.40
2018-11-27T07:58:15.179Z,26.70
2018-11-27T07:59:15.169Z,27.80
2018-11-27T08:00:15.164Z,28.50
2018-11-27T08:01:15.186Z,28.60
2018-11-27T08:02:15.150Z,24.30
2018-11-27T08:03:15.151Z,26.60
2018-11-27T08:04:15.116Z,25.40
2018-11-27T08:05:15.106Z,27.10
2018-11-27T08:06:15.107Z,28.20
2018-11-27T08:07:15.119Z,29.80
2018-11-27T08:08:15.076Z,25.50
2018-11-27T08:09:15.085Z,27.80
2018-11-27T08:10:15.056Z,29.10
2018-11-27T08:11:15.042Z,29.80
2018-11-27T08:12:15.033Z,26.20
2018-11-27T08:13:15.047Z,30.90
2018-11-27T08:14:15.012Z,28.90
2018-11-27T08:15:15.038Z,26.00
2018-11-27T08:16:15.002Z,24.20
2018-11-27T08:17:14.998Z,25.20
2018-11-27T08:18:15.041Z,27.50
2018-11-27T08:19:14.958Z,26.50
2018-11-27T08:20:14.969Z,26.30
2018-11-27T08:21:14.937Z,26.40
2018-11-27T08:22:14.924Z,27.40
2018-11-27T08:23:14.965Z,27.50
2018-11-27T08:24:14.905Z,23.70
2018-11-27T08:25:14.893Z,25.90
2018-11-27T08:26:14.888Z,26.10
2018-11-27T08:27:14.884Z,22.90
2018-11-27T08:28:14.932Z,25.80
2018-11-27T08:29:14.857Z,21.20
2018-11-27T08:30:14.843Z,25.30
2018-11-27T08:31:14.862Z,22.00
2018-11-27T08:32:14.835Z,22.20
2018-11-27T08:33:14.844Z,22.40
2018-11-27T08:34:14.829Z,26.90
2018-11-27T08:35:14.788Z,23.20
2018-11-27T08:36:14.793Z,22.20
2018-11-27T08:37:14.766Z,21.50
2018-11-27T08:38:14.758Z,23.60
2018-11-27T08:39:14.773Z,22.20
2018-11-27T08:40:14.780Z,20.60
2018-11-27T08:41:14.738Z,20.20
2018-11-27T08:42:14.717Z,24.30
2018-11-27T08:43:14.705Z,20.40
2018-11-27T08:44:14.724Z,26.70
2018-11-27T08:45:14.695Z,23.30
2018-11-27T08:46:14.722Z,20.90
2018-11-27T08:47:14.660Z,21.40
2018-11-27T08:48:14.653Z,20.40
2018-11-27T08:49:14.647Z,21.80
2018-11-27T08:50:14.670Z,22.00
2018-11-27T08:51:14.616Z,22.00
2018-11-27T08:52:14.683Z,21.70
2018-11-27T08:53:14.597Z,21.90
2018-11-27T08:54:14.590Z,21.70
2018-11-27T08:55:14.574Z,21.00
2018-11-27T08:56:14.589Z,24.90
2018-11-27T08:57:14.553Z,22.60
2018-11-27T08:58:14.579Z,25.60
2018-11-27T08:59:14.537Z,22.20
2018-11-27T09:00:14.520Z,20.90
2018-11-27T09:01:14.538Z,25.00
2018-11-27T09:02:14.497Z,25.30
2018-11-27T09:03:14.486Z,23.30
2018-11-27T09:04:14.496Z,24.50
2018-11-27T09:05:14.520Z,23.00
2018-11-27T09:06:14.479Z,21.90
2018-11-27T09:07:14.442Z,23.30
2018-11-27T09:08:14.432Z,23.00
2018-11-27T09:09:14.421Z,26.60
2018-11-27T09:10:14.437Z,30.30
2018-11-27T09:11:14.455Z,23.70
2018-11-27T09:12:14.394Z,24.90
2018-11-27T09:13:14.687Z,24.90
2018-11-27T09:14:14.372Z,23.80
2018-11-27T09:15:14.364Z,24.30
2018-11-27T09:16:14.347Z,22.20
2018-11-27T09:17:14.379Z,23.00
2018-11-27T09:18:14.328Z,25.70
2018-11-27T09:19:14.317Z,27.30
2018-11-27T09:20:14.307Z,24.00
2018-11-27T09:21:14.304Z,23.50
2018-11-27T09:22:14.291Z,26.90
2018-11-27T09:23:14.335Z,23.20
2018-11-27T09:24:14.262Z,24.00
2018-11-27T09:25:14.255Z,24.50
2018-11-27T09:26:14.245Z,23.40
2018-11-27T09:27:14.235Z,24.80
2018-11-27T09:28:14.250Z,25.40
2018-11-27T09:29:14.240Z,24.50
2018-11-27T09:30:14.198Z,23.50
2018-11-27T09:31:14.189Z,21.50
2018-11-27T09:32:14.178Z,25.90
2018-11-27T09:33:14.199Z,23.30
2018-11-27T09:34:14.157Z,22.90
2018-11-27T09:35:14.166Z,20.70
2018-11-27T09:36:14.135Z,22.00
2018-11-27T09:37:14.127Z,19.60
2018-11-27T09:38:14.118Z,21.00
2018-11-27T09:39:14.133Z,19.60
2018-11-27T09:40:14.096Z,19.40
2018-11-27T09:41:14.148Z,19.30
2018-11-27T09:42:14.073Z,20.50
2018-11-27T09:43:14.074Z,20.60
2018-11-27T09:44:14.054Z,19.60
2018-11-27T09:45:14.071Z,18.40
2018-11-27T09:46:14.031Z,17.90
2018-11-27T09:47:14.032Z,18.80
2018-11-27T09:48:14.010Z,19.20
2018-11-27T09:49:14.016Z,16.60
2018-11-27T09:50:14.016Z,18.50
2018-11-27T09:51:13.978Z,18.40
2018-11-27T09:52:13.967Z,17.80
2018-11-27T09:53:13.984Z,16.80
2018-11-27T09:54:13.945Z,15.80
2018-11-27T09:55:13.971Z,17.00
2018-11-27T09:56:13.925Z,16.80
2018-11-27T09:57:13.919Z,16.40
2018-11-27T09:58:13.907Z,18.10
2018-11-27T09:59:13.966Z,16.40
2018-11-27T10:00:13.885Z,16.40
2018-11-27T10:01:13.900Z,15.60
2018-11-27T10:02:13.862Z,16.80
2018-11-27T10:03:13.856Z,15.90
2018-11-27T10:04:13.839Z,16.10
2018-11-27T10:05:13.868Z,15.40
2018-11-27T10:06:13.841Z,15.10
2018-11-27T10:07:13.812Z,15.00
2018-11-27T10:08:13.795Z,15.60
2018-11-27T10:09:13.783Z,17.00
2018-11-27T10:10:13.775Z,17.40
2018-11-27T10:11:13.833Z,14.70
2018-11-27T10:12:13.756Z,19.00
2018-11-27T10:13:13.746Z,19.90
2018-11-27T10:14:13.765Z,18.50
2018-11-27T10:15:13.721Z,16.70
2018-11-27T10:16:13.710Z,18.50
2018-11-27T10:17:13.777Z,18.30
2018-11-27T10:18:13.691Z,17.40
2018-11-27T10:19:13.679Z,15.40
2018-11-27T10:20:13.671Z,16.20
2018-11-27T10:21:13.659Z,17.00
2018-11-27T10:22:13.642Z,18.20
2018-11-27T10:23:13.736Z,16.70
2018-11-27T10:24:13.622Z,14.70
2018-11-27T10:25:13.611Z,16.80
2018-11-27T10:26:13.603Z,17.30
2018-11-27T10:27:13.591Z,14.60
2018-11-27T10:28:13.609Z,19.10
2018-11-27T10:29:13.599Z,17.20
2018-11-27T10:30:13.558Z,16.20
2018-11-27T10:31:13.550Z,15.30
2018-11-27T10:32:13.541Z,18.00
2018-11-27T10:33:13.545Z,17.90
2018-11-27T10:34:13.553Z,16.40
2018-11-27T10:35:13.508Z,16.70
2018-11-27T10:36:13.530Z,17.80
2018-11-27T10:37:13.491Z,15.00
2018-11-27T10:38:13.472Z,14.60
2018-11-27T10:39:13.486Z,14.00
2018-11-27T10:40:13.449Z,13.10
2018-11-27T10:41:13.439Z,14.60
2018-11-27T10:42:13.836Z,14.20
2018-11-27T10:43:13.415Z,16.10
2018-11-27T10:44:13.433Z,13.90
2018-11-27T10:45:13.403Z,14.50
2018-11-27T10:46:13.388Z,14.30
2018-11-27T10:47:13.375Z,15.10
2018-11-27T10:48:13.393Z,14.10
2018-11-27T10:49:13.398Z,15.70
2018-11-27T10:50:13.348Z,14.50
2018-11-27T10:51:13.346Z,13.60
2018-11-27T10:52:13.318Z,12.20
2018-11-27T10:53:13.314Z,11.90
2018-11-27T10:54:13.421Z,11.40
2018-11-27T10:55:13.287Z,11.80
2018-11-27T10:56:13.285Z,9.70
2018-11-27T10:57:13.265Z,10.90
2018-11-27T10:58:13.263Z,9.60
2018-11-27T10:59:13.272Z,11.10
2018-11-27T11:00:13.257Z,9.90
2018-11-27T11:01:13.221Z,9.40
2018-11-27T11:02:13.213Z,10.10
2018-11-27T11:03:13.206Z,10.70
2018-11-27T11:04:13.226Z,9.40
2018-11-27T11:05:13.185Z,9.40
2018-11-27T11:06:13.169Z,9.30
2018-11-27T11:07:13.198Z,10.30
2018-11-27T11:08:13.148Z,9.90
2018-11-27T11:09:13.139Z,10.00
2018-11-27T11:10:13.155Z,10.30
2018-11-27T11:11:13.112Z,9.70
2018-11-27T11:12:13.116Z,9.20
2018-11-27T11:13:13.124Z,10.40
2018-11-27T11:14:13.084Z,11.20
2018-11-27T11:15:13.101Z,9.40
2018-11-27T11:16:13.069Z,10.90
2018-11-27T11:17:13.052Z,11.90
2018-11-27T11:18:13.054Z,8.80
2018-11-27T11:19:18.255Z,10.50
2018-11-27T11:20:14.094Z,9.60
2018-11-27T11:21:13.011Z,11.00
2018-11-27T11:22:13.015Z,10.00
2018-11-27T11:23:12.985Z,10.00
2018-11-27T11:24:12.973Z,10.40
2018-11-27T11:25:12.999Z,10.80
2018-11-27T11:26:13.036Z,10.10
2018-11-27T11:27:12.954Z,10.90
2018-11-27T11:28:12.936Z,10.20
2018-11-27T11:29:12.920Z,11.50
2018-11-27T11:30:12.914Z,10.10
2018-11-27T11:31:12.937Z,11.30
2018-11-27T11:32:12.885Z,12.30
2018-11-27T11:33:12.937Z,10.50
2018-11-27T11:34:12.870Z,10.80
2018-11-27T11:35:12.857Z,11.00
2018-11-27T11:36:12.879Z,9.50
2018-11-27T11:37:12.836Z,12.10
2018-11-27T11:38:12.824Z,9.40
2018-11-27T11:39:12.828Z,11.00
2018-11-27T11:40:12.798Z,9.30
2018-11-27T11:41:12.798Z,10.40
2018-11-27T11:42:12.807Z,9.70
2018-11-27T11:43:12.780Z,9.30
2018-11-27T11:44:12.764Z,10.40
2018-11-27T11:45:12.828Z,13.00
2018-11-27T11:46:12.741Z,8.80
2018-11-27T11:47:12.727Z,9.70
2018-11-27T11:48:12.755Z,12.00
2018-11-27T11:49:12.723Z,11.70
2018-11-27T11:50:12.710Z,9.80
2018-11-27T11:51:12.685Z,10.20
2018-11-27T11:52:12.801Z,9.90
2018-11-27T11:53:12.686Z,9.70
2018-11-27T11:54:12.648Z,9.30
2018-11-27T11:55:12.648Z,9.00
2018-11-27T11:56:12.645Z,8.50
2018-11-27T11:57:12.621Z,10.40
2018-11-27T11:58:12.681Z,10.20
2018-11-27T11:59:12.611Z,8.40
2018-11-27T12:00:12.584Z,9.40
2018-11-27T12:01:12.575Z,9.20
2018-11-27T12:02:12.568Z,11.30
2018-11-27T12:03:12.596Z,9.50
2018-11-27T12:04:12.550Z,10.80
2018-11-27T12:05:12.544Z,10.40
2018-11-27T12:06:12.623Z,10.70
2018-11-27T12:07:12.517Z,10.90
2018-11-27T12:08:12.497Z,10.30
2018-11-27T12:09:12.534Z,11.20
2018-11-27T12:10:12.482Z,11.80
2018-11-27T12:11:12.518Z,11.50
2018-11-27T12:12:12.461Z,12.20
2018-11-27T12:13:12.444Z,9.90
2018-11-27T12:14:12.486Z,11.80
2018-11-27T12:15:12.445Z,10.90
2018-11-27T12:16:12.417Z,12.50
2018-11-27T12:17:12.435Z,13.50
2018-11-27T12:18:12.400Z,17.70
2018-11-27T12:19:12.420Z,13.70
2018-11-27T12:20:12.406Z,13.70
2018-11-27T12:21:12.384Z,11.50
2018-11-27T12:22:12.349Z,10.60
2018-11-27T12:23:12.359Z,11.70
2018-11-27T12:24:12.323Z,9.20
2018-11-27T12:25:12.319Z,10.10
2018-11-27T12:26:12.378Z,9.30
2018-11-27T12:27:12.298Z,9.90
2018-11-27T12:28:14.624Z,10.80
2018-11-27T12:29:12.311Z,9.60
2018-11-27T12:30:12.309Z,9.30
2018-11-27T12:31:12.276Z,9.20
2018-11-27T12:32:12.243Z,9.60
2018-11-27T12:33:12.298Z,9.70
2018-11-27T12:34:12.223Z,10.80
2018-11-27T12:35:12.211Z,11.80
2018-11-27T12:36:12.225Z,12.10
2018-11-27T12:37:12.240Z,9.50
2018-11-27T12:38:12.180Z,9.70
2018-11-27T12:39:12.164Z,11.90
2018-11-27T12:40:12.291Z,11.50
2018-11-27T12:41:12.219Z,10.30
2018-11-27T12:42:12.160Z,10.70
2018-11-27T12:43:12.125Z,10.90
2018-11-27T12:44:12.168Z,8.60
2018-11-27T12:45:12.099Z,9.80
2018-11-27T12:46:12.096Z,9.90
2018-11-27T12:47:12.107Z,10.30
2018-11-27T12:48:12.133Z,11.00
2018-11-27T12:49:12.060Z,12.70
2018-11-27T12:50:12.045Z,10.80
2018-11-27T12:51:12.520Z,10.30
2018-11-27T12:52:12.022Z,10.10
2018-11-27T12:53:16.857Z,13.40
2018-11-27T12:54:13.068Z,10.70